createdAt,value
2023-10-16T00:01:33.247Z,3.70
2023-10-16T00:04:02.175Z,4.47
2023-10-16T00:06:30.088Z,3.60
2023-10-16T00:09:11.518Z,3.58
2023-10-16T00:11:39.144Z,3.35
2023-10-16T00:14:19.979Z,2.75
2023-10-16T00:16:46.815Z,3.70
2023-10-16T00:19:14.476Z,2.70
2023-10-16T00:21:45.199Z,2.90
2023-10-16T00:24:13.854Z,3.83
2023-10-16T00:26:50.450Z,2.83
2023-10-16T00:29:21.018Z,4.53
2023-10-16T00:31:53.186Z,2.80
2023-10-16T00:34:21.302Z,3.25
2023-10-16T00:36:54.838Z,3.05
2023-10-16T00:39:23.392Z,3.50
2023-10-16T00:41:51.445Z,3.87
2023-10-16T00:44:18.537Z,6.10
2023-10-16T00:46:49.582Z,3.63
2023-10-16T00:49:20.295Z,3.05
2023-10-16T00:51:48.641Z,3.00
2023-10-16T00:54:20.532Z,3.90
2023-10-16T00:56:52.098Z,3.42
2023-10-16T00:59:19.921Z,4.45
2023-10-16T01:01:47.769Z,3.13
2023-10-16T01:04:15.633Z,2.85
2023-10-16T01:06:45.850Z,5.65
2023-10-16T01:09:25.883Z,3.40
2023-10-16T01:11:55.608Z,2.97
2023-10-16T01:14:22.579Z,4.20
2023-10-16T01:16:50.506Z,3.15
2023-10-16T01:19:21.082Z,3.45
2023-10-16T01:21:49.202Z,3.30
2023-10-16T01:24:18.049Z,3.40
2023-10-16T01:26:46.103Z,3.65
2023-10-16T01:29:15.956Z,3.28
2023-10-16T01:31:45.676Z,3.38
2023-10-16T01:34:12.814Z,3.70
2023-10-16T01:36:48.701Z,3.30
2023-10-16T01:39:34.232Z,4.35
2023-10-16T01:42:10.454Z,4.25
2023-10-16T01:44:37.884Z,3.97
2023-10-16T01:47:07.554Z,2.95
2023-10-16T01:49:34.376Z,3.33
2023-10-16T01:52:01.164Z,3.85
2023-10-16T01:54:28.148Z,4.45
2023-10-16T01:56:55.661Z,4.45
2023-10-16T01:59:22.758Z,3.47
2023-10-16T02:01:50.779Z,4.47
2023-10-16T02:04:21.281Z,3.55
2023-10-16T02:06:50.022Z,3.58
2023-10-16T02:09:24.355Z,6.07
2023-10-16T02:11:52.051Z,3.72
2023-10-16T02:14:21.508Z,3.50
2023-10-16T02:16:48.622Z,3.40
2023-10-16T02:19:17.650Z,4.43
2023-10-16T02:21:45.928Z,3.05
2023-10-16T02:24:12.882Z,3.22
2023-10-16T02:26:57.968Z,3.35
2023-10-16T02:29:25.673Z,3.20
2023-10-16T02:31:53.038Z,3.97
2023-10-16T02:34:24.254Z,4.55
2023-10-16T02:36:52.532Z,3.33
2023-10-16T02:39:36.343Z,3.33
2023-10-16T02:42:27.814Z,3.95
2023-10-16T02:44:57.707Z,3.70
2023-10-16T02:47:28.270Z,3.30
2023-10-16T02:49:57.596Z,4.57
2023-10-16T02:54:53.211Z,4.97
2023-10-16T02:57:20.954Z,3.50
2023-10-16T02:59:48.182Z,4.93
2023-10-16T03:02:24.411Z,4.25
2023-10-16T03:04:55.845Z,2.70
2023-10-16T03:07:26.275Z,3.35
2023-10-16T03:09:54.140Z,4.88
2023-10-16T03:12:22.063Z,3.63
2023-10-16T03:15:12.356Z,4.80
2023-10-16T03:17:39.207Z,5.85
2023-10-16T03:20:22.831Z,3.53
2023-10-16T03:22:51.375Z,3.40
2023-10-16T03:25:57.569Z,4.20
2023-10-16T03:28:25.156Z,3.88
2023-10-16T03:30:52.296Z,3.58
2023-10-16T03:33:20.234Z,3.22
2023-10-16T03:35:50.584Z,2.92
2023-10-16T03:38:28.254Z,3.88
2023-10-16T03:40:57.650Z,3.58
2023-10-16T03:43:24.540Z,4.82
2023-10-16T03:45:51.452Z,4.65
2023-10-16T03:48:18.785Z,4.47
2023-10-16T03:50:45.664Z,4.03
2023-10-16T03:53:14.654Z,3.60
2023-10-16T03:55:45.900Z,4.82
2023-10-16T03:58:15.751Z,3.97
2023-10-16T04:00:51.850Z,4.22
2023-10-16T04:03:23.382Z,3.70
2023-10-16T04:05:51.524Z,4.32
2023-10-16T04:08:19.482Z,3.47
2023-10-16T04:10:48.042Z,6.18
2023-10-16T04:13:16.386Z,3.72
2023-10-16T04:15:44.187Z,4.20
2023-10-16T04:18:27.035Z,3.65
2023-10-16T04:20:57.361Z,3.75
2023-10-16T04:23:45.690Z,4.63
2023-10-16T04:26:31.611Z,3.90
2023-10-16T04:29:11.767Z,5.55
2023-10-16T04:31:59.847Z,6.50
2023-10-16T04:34:30.779Z,3.95
2023-10-16T04:37:21.141Z,4.03
2023-10-16T04:39:57.598Z,4.15
2023-10-16T04:42:50.882Z,4.50
2023-10-16T04:45:22.762Z,5.03
2023-10-16T04:48:08.372Z,4.40
2023-10-16T04:53:07.669Z,5.22
2023-10-16T04:55:42.118Z,3.95
2023-10-16T04:58:20.431Z,3.97
2023-10-16T05:01:03.877Z,4.05
2023-10-16T05:03:44.576Z,4.47
2023-10-16T05:06:16.352Z,3.35
2023-10-16T05:08:58.759Z,5.50
2023-10-16T05:11:36.588Z,3.88
2023-10-16T05:14:21.080Z,4.53
2023-10-16T05:17:09.117Z,5.78
2023-10-16T05:19:36.441Z,4.05
2023-10-16T05:22:04.634Z,5.07
2023-10-16T05:24:50.551Z,4.13
2023-10-16T05:27:36.508Z,6.93
2023-10-16T05:30:22.567Z,4.10
2023-10-16T05:33:07.965Z,4.10
2023-10-16T05:35:53.233Z,6.20
2023-10-16T05:38:38.381Z,4.28
2023-10-16T05:41:24.713Z,5.72
2023-10-16T05:44:10.528Z,4.00
2023-10-16T05:46:56.380Z,3.78
2023-10-16T05:49:41.703Z,3.83
2023-10-16T05:52:28.055Z,4.95
2023-10-16T05:55:13.306Z,5.00
2023-10-16T05:57:59.238Z,5.00
2023-10-16T06:00:44.559Z,6.03
2023-10-16T06:03:30.074Z,5.78
2023-10-16T06:06:15.413Z,6.90
2023-10-16T06:09:00.810Z,3.67
2023-10-16T06:11:46.229Z,5.45
2023-10-16T06:14:15.872Z,4.25
2023-10-16T06:16:43.666Z,5.78
2023-10-16T06:19:20.859Z,5.63
2023-10-16T06:21:59.053Z,4.75
2023-10-16T06:24:27.957Z,8.85
2023-10-16T06:27:02.622Z,5.35
2023-10-16T06:29:36.218Z,3.92
2023-10-16T06:32:22.602Z,7.30
2023-10-16T06:34:51.017Z,10.02
2023-10-16T06:37:18.408Z,8.95
2023-10-16T06:39:49.732Z,7.78
2023-10-16T06:42:19.827Z,8.38
2023-10-16T06:44:55.921Z,7.45
2023-10-16T06:47:37.328Z,10.55
2023-10-16T06:50:24.172Z,10.07
2023-10-16T06:53:04.301Z,8.07
2023-10-16T06:55:31.204Z,6.88
2023-10-16T06:57:58.163Z,8.13
2023-10-16T07:00:28.442Z,8.30
2023-10-16T07:02:57.003Z,8.80
2023-10-16T07:05:44.021Z,7.53
2023-10-16T07:08:12.209Z,10.88
2023-10-16T07:10:42.602Z,10.25
2023-10-16T07:13:10.399Z,6.85
2023-10-16T07:15:37.370Z,8.10
2023-10-16T07:18:06.105Z,9.25
2023-10-16T07:20:35.508Z,9.20
2023-10-16T07:23:03.220Z,8.15
2023-10-16T07:25:39.063Z,8.40
2023-10-16T07:28:10.242Z,7.70
2023-10-16T07:30:38.086Z,13.10
2023-10-16T07:33:06.167Z,8.02
2023-10-16T07:35:36.281Z,8.15
2023-10-16T07:38:06.584Z,8.55
2023-10-16T07:40:34.424Z,8.43
2023-10-16T07:43:01.299Z,10.82
2023-10-16T07:45:35.767Z,8.73
2023-10-16T07:48:09.296Z,10.35
2023-10-16T07:50:39.977Z,10.05
2023-10-16T07:53:08.850Z,8.15
2023-10-16T07:55:42.058Z,10.15
2023-10-16T07:58:17.795Z,9.82
2023-10-16T08:01:00.715Z,9.45
2023-10-16T08:03:27.782Z,8.75
2023-10-16T08:05:54.667Z,8.23
2023-10-16T08:08:28.687Z,7.35
2023-10-16T08:11:00.803Z,7.20
2023-10-16T08:13:29.047Z,10.82
2023-10-16T08:15:57.202Z,18.60
2023-10-16T08:18:26.847Z,11.98
2023-10-16T08:21:06.693Z,15.73
2023-10-16T08:23:36.545Z,9.68
2023-10-16T08:26:20.973Z,11.32
2023-10-16T08:28:48.854Z,11.60
2023-10-16T08:31:24.893Z,11.07
2023-10-16T08:33:52.593Z,12.88
2023-10-16T08:36:21.452Z,10.65
2023-10-16T08:38:54.722Z,15.98
2023-10-16T08:41:43.743Z,11.55
2023-10-16T08:44:19.181Z,10.07
2023-10-16T08:46:53.765Z,7.80
2023-10-16T08:49:24.656Z,8.25
2023-10-16T08:51:56.138Z,10.32
2023-10-16T08:54:42.052Z,13.80
2023-10-16T08:57:12.770Z,10.40
2023-10-16T08:59:43.564Z,10.00
2023-10-16T09:02:14.172Z,8.13
2023-10-16T09:04:44.242Z,9.13
2023-10-16T09:07:17.767Z,7.63
2023-10-16T09:09:49.287Z,10.50
2023-10-16T09:12:25.708Z,7.28
2023-10-16T09:14:53.366Z,7.32
2023-10-16T09:17:25.500Z,6.93
2023-10-16T09:20:05.569Z,8.88
2023-10-16T09:22:33.182Z,8.90
2023-10-16T09:25:00.972Z,9.82
2023-10-16T09:27:37.521Z,11.48
2023-10-16T09:30:15.841Z,9.98
2023-10-16T09:32:44.473Z,23.38
2023-10-16T09:35:14.065Z,10.17
2023-10-16T09:37:41.492Z,25.13
2023-10-16T09:40:27.976Z,11.90
2023-10-16T09:43:07.290Z,10.13
2023-10-16T09:45:37.951Z,18.25
2023-10-16T09:48:10.587Z,9.98
2023-10-16T09:50:39.112Z,21.88
2023-10-16T09:53:09.773Z,14.57
2023-10-16T09:55:40.397Z,10.63
2023-10-16T09:58:08.108Z,13.80
2023-10-16T10:00:38.878Z,10.43
2023-10-16T10:03:07.691Z,12.63
2023-10-16T10:05:42.711Z,7.97
2023-10-16T10:08:26.670Z,8.80
2023-10-16T10:11:26.050Z,14.45
2023-10-16T10:14:11.105Z,21.13
2023-10-16T10:16:46.558Z,13.05
2023-10-16T10:19:32.596Z,7.40
2023-10-16T10:22:29.170Z,11.30
2023-10-16T10:25:39.017Z,7.45
2023-10-16T10:28:26.310Z,6.55
2023-10-16T10:30:57.268Z,8.45
2023-10-16T10:33:44.493Z,7.90
2023-10-16T10:36:31.700Z,9.18
2023-10-16T10:39:25.158Z,9.98
2023-10-16T10:41:56.827Z,12.30
2023-10-16T10:44:46.145Z,9.20
2023-10-16T10:47:32.233Z,8.15
2023-10-16T10:50:01.553Z,5.55
2023-10-16T10:52:33.636Z,7.07
2023-10-16T10:55:15.553Z,6.40
2023-10-16T10:57:48.912Z,6.38
2023-10-16T11:00:23.469Z,7.70
2023-10-16T11:03:06.416Z,7.00
2023-10-16T11:05:34.701Z,5.85
2023-10-16T11:08:10.947Z,7.20
2023-10-16T11:10:47.579Z,4.72
2023-10-16T11:13:16.138Z,4.85
2023-10-16T11:15:53.921Z,11.20
2023-10-16T11:18:23.361Z,8.03
2023-10-16T11:20:53.644Z,5.18
2023-10-16T11:23:27.175Z,9.35
2023-10-16T11:25:55.972Z,5.13
2023-10-16T11:28:29.569Z,4.55
2023-10-16T11:30:58.635Z,5.63
2023-10-16T11:33:35.875Z,5.38
2023-10-16T11:36:04.882Z,4.53
2023-10-16T11:38:35.345Z,7.68
2023-10-16T11:41:18.276Z,4.63
2023-10-16T11:43:52.968Z,5.75
2023-10-16T11:46:29.989Z,5.05
2023-10-16T11:49:18.769Z,3.97
2023-10-16T11:51:59.145Z,4.72
2023-10-16T11:54:26.858Z,6.50
2023-10-16T11:56:59.251Z,5.20
2023-10-16T11:59:29.237Z,3.15
2023-10-16T12:02:12.098Z,2.92
2023-10-16T12:04:41.973Z,6.03
2023-10-16T12:07:09.261Z,2.72
2023-10-16T12:09:43.323Z,5.00
2023-10-16T12:12:20.950Z,2.83
2023-10-16T12:14:51.685Z,4.00
2023-10-16T12:17:22.841Z,2.33
2023-10-16T12:19:53.323Z,3.58
2023-10-16T12:22:23.682Z,3.42
2023-10-16T12:24:50.944Z,4.75
2023-10-16T12:27:18.328Z,4.63
2023-10-16T12:29:45.719Z,3.17
2023-10-16T12:32:14.249Z,3.05
2023-10-16T12:34:42.559Z,3.10
2023-10-16T12:37:10.023Z,3.30
2023-10-16T12:39:46.578Z,3.30
2023-10-16T12:42:14.762Z,5.47
2023-10-16T12:44:42.379Z,2.90
2023-10-16T12:47:09.451Z,2.75
2023-10-16T12:49:36.434Z,3.67
2023-10-16T12:52:03.480Z,4.43
2023-10-16T12:54:30.393Z,3.53
2023-10-16T12:56:58.770Z,2.28
2023-10-16T12:59:28.494Z,3.55
2023-10-16T13:01:58.541Z,3.50
2023-10-16T13:04:26.724Z,3.90
2023-10-16T13:06:54.027Z,3.38
2023-10-16T13:09:21.044Z,2.65
2023-10-16T13:11:47.888Z,2.20
2023-10-16T13:14:14.896Z,1.65
2023-10-16T13:16:42.969Z,2.63
2023-10-16T13:19:12.631Z,2.30
2023-10-16T13:21:42.389Z,1.63
2023-10-16T13:24:14.431Z,2.92
2023-10-16T13:26:42.210Z,3.20
2023-10-16T13:29:11.855Z,3.60
2023-10-16T13:31:41.954Z,3.00
2023-10-16T13:34:12.466Z,3.58
2023-10-16T13:36:39.846Z,2.25
2023-10-16T13:39:10.544Z,5.20
2023-10-16T13:41:52.927Z,2.33
2023-10-16T13:44:25.095Z,4.75
2023-10-16T13:46:54.386Z,3.00
2023-10-16T13:49:22.570Z,1.40
2023-10-16T13:51:49.652Z,2.97
2023-10-16T13:54:16.481Z,3.22
2023-10-16T13:56:45.040Z,2.05
2023-10-16T13:59:12.999Z,2.78
2023-10-16T14:01:41.367Z,1.85
2023-10-16T14:04:22.614Z,3.97
2023-10-16T14:06:53.078Z,1.58
2023-10-16T14:09:21.966Z,4.65
2023-10-16T14:11:49.379Z,2.90
2023-10-16T14:14:19.926Z,2.92
2023-10-16T14:16:48.631Z,1.98
2023-10-16T14:19:15.539Z,2.80
2023-10-16T14:21:42.522Z,1.85
2023-10-16T14:24:09.883Z,2.53
2023-10-16T14:26:37.308Z,2.35
2023-10-16T14:29:05.145Z,2.67
2023-10-16T14:31:34.894Z,2.33
2023-10-16T14:34:01.890Z,3.17
2023-10-16T14:36:30.676Z,2.50
2023-10-16T14:38:58.052Z,2.28
2023-10-16T14:41:25.154Z,1.70
2023-10-16T14:43:55.831Z,2.95
2023-10-16T14:46:23.973Z,3.80
2023-10-16T14:48:51.504Z,4.47
2023-10-16T14:51:19.402Z,3.92
2023-10-16T14:53:49.831Z,2.28
2023-10-16T14:56:20.555Z,1.85
2023-10-16T14:59:14.769Z,3.60
2023-10-16T15:01:38.104Z,2.40
2023-10-16T15:04:05.500Z,3.35
2023-10-16T15:06:32.707Z,5.88
2023-10-16T15:08:59.667Z,2.55
2023-10-16T15:11:27.956Z,2.58
2023-10-16T15:13:55.191Z,4.60
2023-10-16T15:16:22.609Z,4.53
2023-10-16T15:18:50.102Z,4.22
2023-10-16T15:21:16.943Z,1.98
2023-10-16T15:23:46.655Z,2.55
2023-10-16T15:26:13.747Z,5.15
2023-10-16T15:31:14.012Z,1.88
2023-10-16T15:33:42.166Z,1.52
2023-10-16T15:36:09.126Z,4.18
2023-10-16T15:38:35.918Z,7.40
2023-10-16T15:41:02.794Z,4.38
2023-10-16T15:43:29.659Z,4.13
2023-10-16T15:45:56.604Z,14.27
2023-10-16T15:48:23.470Z,9.90
2023-10-16T15:50:50.401Z,4.30
2023-10-16T15:53:18.448Z,6.10
2023-10-16T15:55:48.152Z,6.38
2023-10-16T15:58:15.251Z,3.90
2023-10-16T16:00:45.993Z,3.47
2023-10-16T16:03:15.783Z,12.00
2023-10-16T16:05:43.155Z,2.50
2023-10-16T16:08:10.451Z,5.25
2023-10-16T16:10:41.101Z,5.57
2023-10-16T16:13:08.507Z,6.63
2023-10-16T16:15:37.575Z,2.95
2023-10-16T16:20:34.827Z,2.20
2023-10-16T16:23:29.803Z,6.78
2023-10-16T16:25:56.682Z,8.73
2023-10-16T16:30:50.337Z,4.82
2023-10-16T16:33:17.201Z,5.93
2023-10-16T16:35:45.180Z,4.30
2023-10-16T16:38:12.379Z,4.32
2023-10-16T16:40:39.211Z,6.22
2023-10-16T16:43:07.497Z,6.25
2023-10-16T16:45:34.358Z,4.13
2023-10-16T16:48:01.254Z,7.70
2023-10-16T16:50:28.090Z,4.93
2023-10-16T16:52:55.840Z,3.03
2023-10-16T16:55:28.986Z,4.07
2023-10-16T16:57:57.514Z,2.53
2023-10-16T17:00:27.958Z,2.07
2023-10-16T17:02:58.505Z,4.25
2023-10-16T17:05:26.702Z,2.60
2023-10-16T17:07:53.560Z,5.05
2023-10-16T17:10:27.041Z,7.15
2023-10-16T17:12:54.049Z,6.50
2023-10-16T17:15:21.561Z,3.42
2023-10-16T17:17:48.575Z,4.38
2023-10-16T17:20:16.762Z,2.20
2023-10-16T17:25:16.665Z,3.47
2023-10-16T17:27:44.128Z,3.05
2023-10-16T17:30:14.155Z,5.30
2023-10-16T17:32:42.074Z,4.47
2023-10-16T17:35:12.855Z,3.10
2023-10-16T17:37:41.355Z,4.13
2023-10-16T17:40:11.166Z,4.00
2023-10-16T17:42:38.305Z,4.63
2023-10-16T17:45:06.637Z,3.55
2023-10-16T17:47:35.118Z,3.83
2023-10-16T17:50:02.785Z,7.05
2023-10-16T17:52:35.084Z,3.10
2023-10-16T17:55:05.789Z,2.90
2023-10-16T17:57:33.631Z,3.63
2023-10-16T18:00:01.059Z,3.13
2023-10-16T18:02:34.931Z,5.38
2023-10-16T18:05:02.006Z,2.80
2023-10-16T18:07:29.248Z,4.18
2023-10-16T18:09:57.598Z,4.72
2023-10-16T18:12:24.528Z,5.38
2023-10-16T18:14:53.645Z,4.15
2023-10-16T18:17:21.814Z,4.22
2023-10-16T18:19:49.459Z,6.63
2023-10-16T18:22:16.519Z,3.97
2023-10-16T18:24:44.977Z,3.75
2023-10-16T18:27:16.158Z,3.50
2023-10-16T18:29:46.090Z,3.35
2023-10-16T18:32:14.670Z,4.70
2023-10-16T18:34:42.438Z,7.80
2023-10-16T18:37:13.004Z,3.50
2023-10-16T18:39:40.102Z,5.85
2023-10-16T18:42:10.274Z,6.35
2023-10-16T18:44:37.692Z,5.63
2023-10-16T18:47:07.266Z,4.15
2023-10-16T18:49:34.364Z,6.63
2023-10-16T18:52:02.444Z,5.55
2023-10-16T18:54:29.415Z,6.05
2023-10-16T18:56:57.620Z,8.68
2023-10-16T18:59:24.493Z,7.15
2023-10-16T19:01:51.532Z,6.25
2023-10-16T19:04:18.721Z,6.40
2023-10-16T19:06:48.732Z,5.78
2023-10-16T19:09:18.770Z,6.15
2023-10-16T19:14:13.549Z,7.43
2023-10-16T19:16:41.736Z,5.03
2023-10-16T19:19:09.734Z,4.23
2023-10-16T19:21:39.081Z,6.18
2023-10-16T19:24:08.636Z,6.43
2023-10-16T19:26:36.831Z,6.00
2023-10-16T19:29:04.354Z,5.43
2023-10-16T19:31:31.331Z,4.72
2023-10-16T19:34:00.500Z,5.15
2023-10-16T19:36:27.682Z,5.10
2023-10-16T19:38:54.752Z,4.68
2023-10-16T19:41:22.711Z,3.95
2023-10-16T19:43:50.541Z,7.20
2023-10-16T19:46:20.911Z,5.15
2023-10-16T19:48:48.882Z,4.90
2023-10-16T19:51:22.465Z,5.25
2023-10-16T19:53:51.467Z,5.13
2023-10-16T19:56:21.691Z,5.13
2023-10-16T19:58:53.424Z,5.97
2023-10-16T20:01:23.521Z,6.07
2023-10-16T20:03:50.972Z,4.90
2023-10-16T20:06:19.973Z,6.05
2023-10-16T20:08:47.563Z,4.68
2023-10-16T20:11:14.736Z,4.65
2023-10-16T20:13:43.681Z,5.68
2023-10-16T20:16:13.799Z,6.10
2023-10-16T20:18:43.082Z,7.30
2023-10-16T20:21:18.830Z,8.15
2023-10-16T20:23:47.757Z,6.13
2023-10-16T20:26:19.790Z,6.22
2023-10-16T20:28:50.905Z,8.27
2023-10-16T20:31:19.767Z,7.70
2023-10-16T20:33:49.597Z,6.95
2023-10-16T20:36:17.883Z,5.95
2023-10-16T20:38:46.607Z,5.28
2023-10-16T20:41:14.552Z,6.63
2023-10-16T20:43:41.616Z,5.80
2023-10-16T20:46:08.575Z,6.28
2023-10-16T20:48:37.523Z,5.38
2023-10-16T20:51:05.111Z,5.68
2023-10-16T20:53:32.351Z,5.07
2023-10-16T20:55:59.217Z,6.25
2023-10-16T20:58:26.070Z,5.80
2023-10-16T21:00:56.705Z,6.35
2023-10-16T21:03:24.907Z,6.63
2023-10-16T21:05:52.224Z,4.80
2023-10-16T21:08:20.384Z,5.57
2023-10-16T21:10:51.198Z,6.25
2023-10-16T21:13:18.293Z,5.60
2023-10-16T21:15:45.173Z,9.45
2023-10-16T21:18:15.138Z,5.93
2023-10-16T21:20:42.186Z,6.47
2023-10-16T21:23:09.031Z,6.20
2023-10-16T21:25:35.845Z,6.07
2023-10-16T21:28:03.792Z,4.63
2023-10-16T21:30:31.264Z,4.68
2023-10-16T21:32:58.278Z,4.75
2023-10-16T21:35:28.018Z,6.00
2023-10-16T21:37:54.912Z,6.18
2023-10-16T21:40:25.242Z,6.32
2023-10-16T21:42:53.268Z,6.47
2023-10-16T21:45:20.748Z,5.88
2023-10-16T21:47:48.040Z,4.82
2023-10-16T21:50:15.463Z,5.03
2023-10-16T21:52:42.394Z,5.78
2023-10-16T21:55:09.638Z,8.88
2023-10-16T21:57:36.554Z,4.72
2023-10-16T22:00:14.402Z,5.80
2023-10-16T22:02:44.851Z,6.07
2023-10-16T22:05:13.023Z,5.35
2023-10-16T22:07:40.301Z,8.88
2023-10-16T22:10:10.777Z,4.15
2023-10-16T22:12:38.275Z,4.35
2023-10-16T22:15:11.161Z,5.03
2023-10-16T22:17:38.895Z,5.28
2023-10-16T22:20:09.985Z,5.95
2023-10-16T22:22:37.051Z,5.55
2023-10-16T22:25:05.972Z,5.03
2023-10-16T22:27:33.433Z,4.75
2023-10-16T22:30:00.348Z,5.80
2023-10-16T22:32:27.218Z,4.70
2023-10-16T22:34:54.119Z,6.35
2023-10-16T22:37:20.947Z,5.32
2023-10-16T22:39:48.769Z,6.30
2023-10-16T22:42:16.842Z,7.95
2023-10-16T22:44:44.028Z,5.22
2023-10-16T22:47:11.129Z,4.80
2023-10-16T22:49:38.030Z,8.02
2023-10-16T22:52:05.079Z,5.40
2023-10-16T22:54:32.615Z,5.03
2023-10-16T22:57:01.075Z,4.30
2023-10-16T22:59:28.078Z,4.50
2023-10-16T23:01:55.022Z,9.43
2023-10-16T23:04:21.856Z,5.35
2023-10-16T23:06:51.419Z,6.38
2023-10-16T23:09:30.731Z,6.00
2023-10-16T23:12:10.618Z,5.70
2023-10-16T23:14:38.689Z,5.15
2023-10-16T23:17:17.861Z,5.05
2023-10-16T23:19:45.002Z,4.47
2023-10-16T23:22:11.833Z,6.50
2023-10-16T23:24:38.732Z,5.20
2023-10-16T23:27:07.975Z,7.13
2023-10-16T23:29:35.029Z,5.68
2023-10-16T23:32:04.762Z,5.47
2023-10-16T23:34:32.091Z,5.97
2023-10-16T23:37:05.000Z,5.47
2023-10-16T23:39:34.609Z,5.40
2023-10-16T23:42:17.955Z,4.85
2023-10-16T23:44:47.454Z,6.25
2023-10-16T23:47:17.763Z,4.35
2023-10-16T23:49:48.269Z,5.03
2023-10-16T23:52:23.036Z,4.45
2023-10-16T23:54:56.952Z,5.95
2023-10-16T23:57:28.811Z,4.63
